Time;durP1;ratioP1;P1;durP2;ratioP2;P2;SDS_P1;SDS_P2;PMS_P1;PMS_P2;Temp;Humidity;BMP_temperature;BMP_pressure;BME280_temperature;BME280_humidity;BME280_pressure;Samples;Min_cycle;Max_cycle;Signal;HPM_P1;HPM_P2
2023/06/15 00:05:25;;;;;;;1.67;1.25;;;;;;;13.99;100.00;98512.91;15280966;19;20010;-42
2023/06/15 00:10:51;;;;;;;1.50;1.30;;;;;;;13.89;100.00;98520.41;15282260;19;20021;-45
2023/06/15 00:16:18;;;;;;;2.33;1.17;;;;;;;13.75;100.00;98509.34;15282156;19;20023;-44
2023/06/15 00:21:47;;;;;;;1.30;1.20;;;;;;;13.65;100.00;98506.84;15274654;19;20014;-42
2023/06/15 00:27:13;;;;;;;1.70;1.27;;;;;;;13.62;100.00;98509.94;15273730;19;20027;-42
2023/06/15 00:32:38;;;;;;;2.10;1.17;;;;;;;13.59;100.00;98510.28;15277856;19;20029;-43
2023/06/15 00:38:06;;;;;;;3.85;1.42;;;;;;;13.55;100.00;98512.53;15280447;19;20081;-45
2023/06/15 00:43:31;;;;;;;3.40;1.30;;;;;;;13.46;100.00;98516.31;15279120;19;20015;-42
2023/06/15 00:48:56;;;;;;;1.90;1.20;;;;;;;13.35;100.00;98519.34;15281154;19;20035;-43
2023/06/15 00:54:33;;;;;;;1.13;1.08;;;;;;;13.29;100.00;98509.25;15270064;19;20027;-45
2023/06/15 01:00:00;;;;;;;2.08;1.30;;;;;;;13.19;100.00;98512.16;15274508;19;20018;-43
2023/06/15 01:05:25;;;;;;;2.45;1.27;;;;;;;13.12;100.00;98522.81;15279864;19;20097;-43
2023/06/15 01:10:56;;;;;;;3.75;1.20;;;;;;;13.08;100.00;98521.50;15276439;19;20023;-43
2023/06/15 01:16:28;;;;;;;1.83;1.40;;;;;;;13.01;100.00;98523.22;15277239;19;20477;-45
2023/06/15 01:21:53;;;;;;;;;;;;;;;12.88;100.00;98516.47;15277536;19;20086;-44
2023/06/15 01:27:21;;;;;;;2.63;1.45;;;;;;;12.82;100.00;98519.91;15269792;19;20671;-44
2023/06/15 01:32:46;;;;;;;1.33;1.23;;;;;;;12.73;100.00;98516.38;15275772;19;20852;-42
2023/06/15 01:38:11;;;;;;;1.88;1.27;;;;;;;12.64;100.00;98512.00;15293466;19;20412;-42
2023/06/15 01:43:40;;;;;;;2.65;1.48;;;;;;;12.56;100.00;98504.75;15289919;19;20054;-42
2023/06/15 01:49:04;;;;;;;3.05;1.48;;;;;;;12.47;100.00;98505.78;15292479;19;20015;-45
2023/06/15 01:54:35;;;;;;;2.35;1.50;;;;;;;12.39;100.00;98498.53;15288456;19;20018;-42
2023/06/15 02:00:02;;;;;;;2.23;1.47;;;;;;;12.30;100.00;98505.78;15285984;19;20370;-46
2023/06/15 02:05:28;;;;;;;3.00;1.40;;;;;;;12.23;100.00;98510.19;15285956;19;20018;-43
2023/06/15 02:10:54;;;;;;;1.65;1.33;;;;;;;12.14;100.00;98501.25;15288999;19;20808;-44
2023/06/15 02:16:22;;;;;;;2.58;1.60;;;;;;;12.08;100.00;98495.69;15290514;19;20022;-48
2023/06/15 02:21:47;;;;;;;1.40;1.30;;;;;;;12.01;100.00;98499.06;15288765;19;20799;-43
2023/06/15 02:27:12;;;;;;;1.55;1.40;;;;;;;11.93;100.00;98501.75;15289389;19;20025;-42
2023/06/15 02:32:42;;;;;;;1.77;1.50;;;;;;;11.78;100.00;98498.00;15278683;19;20029;-43
2023/06/15 02:38:07;;;;;;;1.73;1.40;;;;;;;11.68;100.00;98504.41;15283557;19;20018;-46
2023/06/15 02:43:32;;;;;;;1.45;1.35;;;;;;;11.60;100.00;98499.00;15286373;19;20114;-45
2023/06/15 02:49:00;;;;;;;2.45;1.65;;;;;;;11.53;100.00;98500.69;15283345;19;20022;-43
2023/06/15 02:54:31;;;;;;;4.10;1.40;;;;;;;11.43;100.00;98518.88;15279933;19;20490;-44
2023/06/15 02:59:59;;;;;;;1.85;1.40;;;;;;;11.36;100.00;98514.09;15285210;19;20018;-50
2023/06/15 03:05:32;;;;;;;3.28;1.40;;;;;;;11.31;100.00;98510.22;15280796;19;20047;-43
2023/06/15 03:10:58;;;;;;;2.85;1.70;;;;;;;11.23;100.00;98509.19;15280162;19;20018;-44
2023/06/15 03:16:25;;;;;;;1.70;1.30;;;;;;;11.18;100.00;98514.22;15284077;19;20011;-41
2023/06/15 03:21:55;;;;;;;2.40;1.40;;;;;;;11.16;100.00;98518.09;15283581;19;20015;-44
2023/06/15 03:27:20;;;;;;;2.65;1.60;;;;;;;11.12;100.00;98514.88;15283854;19;20972;-44
2023/06/15 03:32:49;;;;;;;1.88;1.50;;;;;;;11.10;100.00;98523.16;15281867;19;20007;-44
2023/06/15 03:38:18;;;;;;;2.90;1.63;;;;;;;11.08;100.00;98538.63;15274936;19;20549;-43
2023/06/15 03:43:44;;;;;;;2.95;1.80;;;;;;;11.03;100.00;98538.25;15272742;19;20684;-44
2023/06/15 03:49:10;;;;;;;2.65;1.80;;;;;;;10.94;100.00;98541.94;15280685;19;20101;-44
2023/06/15 03:54:45;;;;;;;1.80;1.70;;;;;;;10.91;100.00;98547.63;15279189;19;20019;-43
2023/06/15 04:00:11;;;;;;;2.35;1.80;;;;;;;10.90;100.00;98549.50;15281748;19;20534;-45
2023/06/15 04:05:36;;;;;;;2.47;1.70;;;;;;;10.92;100.00;98549.34;15281396;19;20018;-44
2023/06/15 04:11:04;;;;;;;3.35;1.70;;;;;;;10.98;100.00;98547.84;15272830;19;20014;-45
2023/06/15 04:16:29;;;;;;;3.35;1.65;;;;;;;10.99;100.00;98544.13;15275890;19;20018;-45
2023/06/15 04:21:55;;;;;;;1.73;1.63;;;;;;;11.06;100.00;98556.81;15282020;19;20010;-44
2023/06/15 04:27:27;;;;;;;2.35;1.50;;;;;;;11.09;100.00;98564.59;15280240;19;20014;-45
2023/06/15 04:32:57;;;;;;;4.72;1.70;;;;;;;11.16;100.00;98572.03;15278856;19;20006;-44
2023/06/15 04:38:22;;;;;;;3.95;1.70;;;;;;;11.21;100.00;98570.53;15281007;19;20021;-44
2023/06/15 04:43:50;;;;;;;3.20;1.80;;;;;;;11.30;100.00;98584.91;15272149;19;20017;-43
2023/06/15 04:49:17;;;;;;;2.13;1.77;;;;;;;11.34;100.00;98586.28;15274942;19;20014;-43
2023/06/15 04:54:42;;;;;;;2.53;1.75;;;;;;;11.40;100.00;98584.78;15276954;19;20014;-45
2023/06/15 05:00:10;;;;;;;4.13;1.90;;;;;;;11.44;100.00;98588.00;15275691;19;20367;-45
2023/06/15 05:05:41;;;;;;;3.88;1.80;;;;;;;11.53;100.00;98587.00;15278164;19;20026;-44
2023/06/15 05:11:06;;;;;;;2.55;1.75;;;;;;;11.61;100.00;98586.19;15290367;19;20098;-48
2023/06/15 05:16:33;;;;;;;1.85;1.75;;;;;;;11.70;100.00;98588.75;15290821;19;20019;-46
2023/06/15 05:22:01;;;;;;;3.63;1.90;;;;;;;11.76;100.00;98594.50;15289434;19;20035;-43
2023/06/15 05:27:35;;;;;;;2.92;1.95;;;;;;;11.85;100.00;98597.06;15292131;19;20027;-45
2023/06/15 05:33:03;;;;;;;1.90;1.80;;;;;;;11.92;100.00;98599.94;15289712;19;20029;-44
2023/06/15 05:38:28;;;;;;;2.40;1.90;;;;;;;11.97;100.00;98602.97;15291550;19;20014;-44
2023/06/15 05:43:53;;;;;;;2.85;2.10;;;;;;;12.08;100.00;98617.22;15285666;19;20017;-43
2023/06/15 05:49:20;;;;;;;3.15;2.00;;;;;;;12.13;100.00;98612.16;15290967;19;20038;-41
2023/06/15 05:54:46;;;;;;;2.78;2.00;;;;;;;12.26;100.00;98611.66;15287467;19;20470;-47
2023/06/15 06:00:11;;;;;;;1.88;1.77;;;;;;;12.39;100.00;98606.59;15291694;19;20023;-43
2023/06/15 06:05:43;;;;;;;4.60;2.20;;;;;;;12.61;100.00;98613.22;15287887;19;20016;-44
2023/06/15 06:11:09;;;;;;;4.35;2.03;;;;;;;12.78;100.00;98610.47;15288259;19;20081;-45
2023/06/15 06:16:38;;;;;;;4.07;1.90;;;;;;;13.00;100.00;98613.47;15280966;19;20383;-45
2023/06/15 06:22:05;;;;;;;2.50;1.67;;;;;;;13.21;100.00;98611.06;15284927;19;20022;-43
2023/06/15 06:27:30;;;;;;;2.78;2.00;;;;;;;13.47;100.00;98620.81;15286161;19;20035;-45
2023/06/15 06:32:54;;;;;;;2.53;1.70;;;;;;;13.65;100.00;98617.84;15289542;19;20021;-44
2023/06/15 06:38:22;;;;;;;1.75;1.63;;;;;;;13.93;100.00;98611.13;15289482;19;20006;-43
2023/06/15 06:43:46;;;;;;;5.03;1.85;;;;;;;14.16;100.00;98603.88;15286848;19;20090;-44
2023/06/15 06:49:11;;;;;;;3.85;1.73;;;;;;;14.44;100.00;98616.03;15284060;19;20538;-45
2023/06/15 06:54:45;;;;;;;3.20;1.70;;;;;;;14.74;100.00;98621.56;15279300;19;20015;-45
2023/06/15 07:00:11;;;;;;;2.60;1.60;;;;;;;15.05;100.00;98610.59;15289115;19;20014;-46
2023/06/15 07:05:35;;;;;;;2.58;1.58;;;;;;;15.36;100.00;98604.13;15288111;19;20759;-48
2023/06/15 07:11:03;;;;;;;3.03;1.48;;;;;;;15.66;100.00;98604.13;15288650;19;20375;-48
2023/06/15 07:16:28;;;;;;;3.55;1.50;;;;;;;15.95;100.00;98601.56;15289125;19;20019;-48
2023/06/15 07:21:53;;;;;;;1.98;1.40;;;;;;;16.19;100.00;98592.19;15281855;19;20032;-49
2023/06/15 07:27:20;;;;;;;3.70;1.50;;;;;;;16.39;100.00;98594.28;15281892;19;20799;-47
2023/06/15 07:32:45;;;;;;;3.85;1.30;;;;;;;16.55;100.00;98588.53;15278937;19;20014;-45
2023/06/15 07:38:13;;;;;;;3.25;1.45;;;;;;;16.75;100.00;98587.88;15282187;19;20075;-44
2023/06/15 07:43:41;;;;;;;3.58;1.30;;;;;;;17.04;100.00;98580.56;15284123;19;20018;-45
2023/06/15 07:49:06;;;;;;;5.65;1.25;;;;;;;17.24;100.00;98586.97;15281904;19;20373;-44
2023/06/15 07:54:37;;;;;;;2.47;1.30;;;;;;;17.50;100.00;98587.34;15272680;19;20470;-46
2023/06/15 08:00:07;;;;;;;5.43;1.33;;;;;;;17.68;100.00;98584.06;15276214;19;20021;-44
2023/06/15 08:05:41;;;;;;;4.70;1.23;;;;;;;17.90;100.00;98575.75;15276737;19;20018;-46
2023/06/15 08:11:07;;;;;;;5.95;1.25;;;;;;;18.05;100.00;98581.88;15283722;19;20379;-46
2023/06/15 08:16:34;;;;;;;5.70;1.20;;;;;;;18.16;100.00;98575.88;15284054;19;20016;-44
2023/06/15 08:22:00;;;;;;;2.67;1.10;;;;;;;18.37;100.00;98571.28;15283919;19;20043;-44
2023/06/15 08:27:24;;;;;;;5.10;1.23;;;;;;;18.54;100.00;98570.84;15278029;19;20305;-44
2023/06/15 08:32:52;;;;;;;5.88;1.10;;;;;;;18.64;100.00;98565.81;15277614;19;21359;-45
2023/06/15 08:38:17;;;;;;;4.05;1.20;;;;;;;18.83;98.43;98564.13;15281277;19;20019;-43
2023/06/15 08:43:45;;;;;;;6.15;1.20;;;;;;;18.98;86.73;98566.66;15279048;19;20692;-46
2023/06/15 08:49:13;;;;;;;4.68;1.20;;;;;;;19.05;94.64;98558.47;15277775;19;20015;-46
2023/06/15 08:54:45;;;;;;;2.88;1.17;;;;;;;19.18;88.36;98571.25;15277591;19;20014;-44
2023/06/15 09:00:12;;;;;;;5.28;1.10;;;;;;;19.24;83.20;98560.31;15272571;19;20033;-47
2023/06/15 09:05:41;;;;;;;9.25;1.33;;;;;;;19.39;79.46;98561.94;15279421;19;20025;-43
2023/06/15 09:11:10;;;;;;;4.07;1.33;;;;;;;19.54;75.88;98562.50;15280171;19;20070;-45
2023/06/15 09:16:34;;;;;;;7.63;1.17;;;;;;;19.69;70.57;98561.41;15280577;19;20053;-49
2023/06/15 09:22:02;;;;;;;4.15;1.00;;;;;;;19.84;66.55;98569.31;15279359;19;20015;-43
2023/06/15 09:27:26;;;;;;;4.82;1.10;;;;;;;19.97;68.86;98563.81;15277608;19;20014;-49
2023/06/15 09:32:51;;;;;;;2.75;1.00;;;;;;;20.15;57.97;98554.88;15271716;19;20018;-48
2023/06/15 09:38:19;;;;;;;1.17;0.90;;;;;;;20.30;61.41;98545.50;15275628;19;20022;-45
2023/06/15 09:43:44;;;;;;;2.25;1.00;;;;;;;20.46;55.99;98550.41;15276302;19;20018;-43
2023/06/15 09:49:08;;;;;;;3.97;0.88;;;;;;;20.52;55.03;98540.47;15277418;19;20015;-43
2023/06/15 09:54:42;;;;;;;4.47;1.00;;;;;;;20.55;53.99;98536.47;15282320;19;20103;-43
2023/06/15 10:00:09;;;;;;;5.35;0.90;;;;;;;20.62;53.19;98557.28;15292441;19;20018;-44
2023/06/15 10:05:40;;;;;;;3.95;1.00;;;;;;;20.63;54.08;98539.78;15288521;19;20018;-48
2023/06/15 10:11:08;;;;;;;3.28;1.00;;;;;;;20.77;53.58;98539.66;15285129;19;20010;-48
2023/06/15 10:16:35;;;;;;;3.00;1.10;;;;;;;21.04;55.49;98531.19;15289433;19;20034;-44
2023/06/15 10:22:00;;;;;;;6.80;1.10;;;;;;;21.11;52.22;98531.94;15290645;19;20034;-53
2023/06/15 10:27:28;;;;;;;2.53;0.90;;;;;;;21.41;51.84;98525.72;15291163;19;20014;-49
2023/06/15 10:33:03;;;;;;;1.35;0.98;;;;;;;21.63;49.83;98514.31;15289588;19;20003;-46
2023/06/15 10:38:38;;;;;;;4.30;1.05;;;;;;;21.57;49.80;98526.19;15284569;19;20010;-48
2023/06/15 10:44:07;;;;;;;4.82;1.00;;;;;;;21.39;50.26;98519.63;15278647;19;20018;-45
2023/06/15 10:49:31;;;;;;;2.55;0.93;;;;;;;21.67;52.18;98512.78;15288004;19;20022;-48
2023/06/15 10:55:07;;;;;;;2.60;1.00;;;;;;;21.62;48.57;98518.97;15288246;19;20097;-46
2023/06/15 11:00:35;;;;;;;2.80;1.10;;;;;;;21.74;49.47;98510.78;15288458;19;20010;-50
2023/06/15 11:06:11;;;;;;;2.05;0.95;;;;;;;22.06;50.08;98506.97;15287170;19;20014;-51
2023/06/15 11:11:38;;;;;;;1.40;0.88;;;;;;;22.12;48.80;98511.50;15288167;19;20007;-45
2023/06/15 11:17:15;;;;;;;6.57;1.10;;;;;;;21.77;47.10;98515.81;15282910;19;20037;-45
2023/06/15 11:22:42;;;;;;;2.53;0.90;;;;;;;21.59;47.09;98518.53;15285875;19;20018;-47
2023/06/15 11:28:06;;;;;;;3.42;0.90;;;;;;;21.85;48.36;98507.25;15285642;19;20921;-47
2023/06/15 11:33:54;;;;;;;3.38;1.00;;;;;;;22.28;45.62;98499.03;15284834;19;20025;-47
2023/06/15 11:39:26;;;;;;;3.13;1.00;;;;;;;22.63;46.55;98503.75;15279583;19;20018;-47
2023/06/15 11:44:52;;;;;;;;;;;;;;;22.40;43.76;98499.84;15281104;19;20010;-50
2023/06/15 11:50:20;;;;;;;2.33;1.00;;;;;;;22.17;46.49;98498.75;15286845;19;19915;-50
2023/06/15 11:55:46;;;;;;;4.10;1.00;;;;;;;22.22;46.16;98497.22;15284412;19;20094;-46
2023/06/15 12:01:14;;;;;;;4.00;0.90;;;;;;;22.31;46.14;98484.81;15281641;19;20014;-46
2023/06/15 12:06:43;;;;;;;2.60;0.98;;;;;;;22.55;42.69;98482.97;15283232;19;20024;-45
2023/06/15 12:12:10;;;;;;;2.25;0.95;;;;;;;22.89;44.76;98480.47;15277685;19;20360;-45
2023/06/15 12:17:36;;;;;;;3.80;0.90;;;;;;;23.06;44.73;98471.47;15277942;19;20014;-47
2023/06/15 12:23:04;;;;;;;3.75;0.90;;;;;;;22.90;43.39;98473.88;15282686;19;20355;-48
2023/06/15 12:28:30;;;;;;;2.10;0.90;;;;;;;23.12;42.67;98487.00;15282718;19;20018;-47
2023/06/15 12:33:59;;;;;;;2.33;1.20;;;;;;;23.44;42.56;98455.50;15279836;19;20102;-46
2023/06/15 12:39:32;;;;;;;2.30;0.80;;;;;;;23.09;38.99;98477.31;15282293;19;20014;-45
2023/06/15 12:44:56;;;;;;;3.42;0.90;;;;;;;23.27;41.05;98448.03;15274669;19;20016;-50
2023/06/15 12:50:21;;;;;;;2.70;0.70;;;;;;;23.35;38.44;98444.88;15276891;19;20019;-48
2023/06/15 12:55:48;;;;;;;1.42;0.80;;;;;;;23.73;38.16;98439.00;15280634;19;20021;-49
2023/06/15 13:01:13;;;;;;;1.77;0.82;;;;;;;23.76;38.43;98439.31;15281998;19;20014;-46
2023/06/15 13:06:38;;;;;;;1.40;0.80;;;;;;;24.04;39.63;98431.34;15280289;19;20482;-48
2023/06/15 13:12:05;;;;;;;3.25;0.88;;;;;;;24.35;39.63;98427.13;15279961;19;20021;-46
2023/06/15 13:17:31;;;;;;;1.10;0.80;;;;;;;24.50;37.48;98426.56;15270120;19;20013;-45
2023/06/15 13:22:56;;;;;;;4.25;0.90;;;;;;;24.61;35.76;98413.75;15273548;19;20010;-44
2023/06/15 13:28:23;;;;;;;2.90;0.80;;;;;;;25.05;35.97;98410.25;15277452;19;20010;-45
2023/06/15 13:33:48;;;;;;;3.67;0.80;;;;;;;25.02;35.59;98413.50;15292200;19;20014;-45
2023/06/15 13:39:13;;;;;;;2.42;0.70;;;;;;;25.13;36.33;98418.03;15292233;19;20046;-44
2023/06/15 13:44:41;;;;;;;3.10;0.90;;;;;;;24.36;41.35;98426.06;15289323;19;20015;-45
2023/06/15 13:50:06;;;;;;;3.88;0.98;;;;;;;24.00;42.00;98418.06;15281247;19;20010;-45
2023/06/15 13:55:38;;;;;;;1.80;0.90;;;;;;;23.90;40.80;98420.63;15282277;19;20810;-47
2023/06/15 14:01:06;;;;;;;3.95;0.82;;;;;;;24.27;39.82;98411.91;15289712;19;20014;-44
2023/06/15 14:06:37;;;;;;;2.80;0.90;;;;;;;25.01;39.65;98404.41;15292923;19;20021;-45
2023/06/15 14:12:03;;;;;;;2.35;0.85;;;;;;;26.02;40.06;98414.31;15289844;19;20018;-45
2023/06/15 14:17:31;;;;;;;2.85;0.85;;;;;;;25.90;38.10;98400.69;15285154;19;20014;-45
2023/06/15 14:22:55;;;;;;;1.88;0.88;;;;;;;25.38;36.09;98405.66;15282338;19;20010;-48
2023/06/15 14:28:20;;;;;;;4.50;0.98;;;;;;;25.37;38.45;98406.75;15282635;19;20018;-46
2023/06/15 14:33:48;;;;;;;3.45;1.00;;;;;;;25.01;38.33;98403.56;15286636;19;20013;-46
2023/06/15 14:39:13;;;;;;;3.67;0.77;;;;;;;25.13;38.30;98384.97;15285251;19;20418;-45
2023/06/15 14:44:38;;;;;;;3.65;0.85;;;;;;;25.79;37.10;98394.22;15283835;19;20011;-47
2023/06/15 14:50:06;;;;;;;1.80;0.80;;;;;;;25.40;37.48;98395.19;15286542;19;20010;-49
2023/06/15 14:55:30;;;;;;;1.67;0.68;;;;;;;24.45;37.94;98382.41;15277965;19;20442;-46
2023/06/15 15:00:55;;;;;;;1.75;0.80;;;;;;;24.16;38.22;98390.81;15283790;19;20734;-45
2023/06/15 15:06:23;;;;;;;3.30;0.77;;;;;;;23.88;38.48;98387.00;15283831;19;20007;-46
2023/06/15 15:11:49;;;;;;;2.35;1.00;;;;;;;24.22;36.28;98387.03;15286015;19;20025;-44
2023/06/15 15:17:14;;;;;;;2.33;0.93;;;;;;;24.70;34.94;98372.88;15283782;19;20028;-44
2023/06/15 15:22:42;;;;;;;1.23;0.80;;;;;;;25.38;34.49;98367.03;15284729;19;20036;-48
2023/06/15 15:28:06;;;;;;;1.48;0.98;;;;;;;25.69;34.36;98368.22;15278555;19;20117;-47
2023/06/15 15:33:31;;;;;;;3.85;0.90;;;;;;;25.67;34.51;98373.16;15279252;19;20085;-47
2023/06/15 15:38:58;;;;;;;2.58;0.80;;;;;;;25.34;32.70;98371.44;15283927;19;20015;-46
2023/06/15 15:44:23;;;;;;;2.67;0.80;;;;;;;25.73;31.78;98374.03;15282429;19;20014;-46
2023/06/15 15:49:47;;;;;;;3.72;1.08;;;;;;;25.44;34.24;98368.81;15282481;19;20729;-46
2023/06/15 15:55:16;;;;;;;2.75;0.90;;;;;;;24.68;35.26;98364.84;15278958;19;20029;-44
2023/06/15 16:00:40;;;;;;;3.00;0.88;;;;;;;25.12;34.57;98364.00;15277288;19;20343;-46
2023/06/15 16:06:05;;;;;;;2.50;1.00;;;;;;;25.03;34.83;98360.03;15278357;19;20014;-47
2023/06/15 16:11:32;;;;;;;2.95;1.17;;;;;;;25.27;34.24;98357.84;15283324;19;20029;-47
2023/06/15 16:16:58;;;;;;;5.47;1.20;;;;;;;25.43;33.93;98361.63;15278838;19;20681;-46
2023/06/15 16:22:24;;;;;;;1.52;1.05;;;;;;;25.35;34.54;98351.00;15282569;19;20022;-48
2023/06/15 16:27:51;;;;;;;3.50;1.10;;;;;;;25.70;34.71;98349.72;15280091;19;20026;-47
2023/06/15 16:33:15;;;;;;;1.17;0.93;;;;;;;25.80;34.53;98343.47;15276166;19;20006;-45
2023/06/15 16:38:40;;;;;;;2.15;1.10;;;;;;;25.76;35.77;98356.13;15275719;19;20381;-46
2023/06/15 16:44:07;;;;;;;1.17;0.90;;;;;;;25.51;35.29;98358.38;15277042;19;20022;-47
2023/06/15 16:49:32;;;;;;;1.50;0.70;;;;;;;25.47;35.62;98376.53;15281103;19;20737;-47
2023/06/15 16:54:57;;;;;;;2.58;0.80;;;;;;;24.79;36.72;98356.72;15275754;19;20031;-46
2023/06/15 17:00:28;;;;;;;3.03;0.93;;;;;;;24.80;37.15;98364.72;15281650;19;20027;-50
2023/06/15 17:05:53;;;;;;;2.28;0.93;;;;;;;25.10;37.46;98370.88;15279209;19;20020;-50
2023/06/15 17:11:19;;;;;;;4.18;1.15;;;;;;;24.79;38.16;98360.31;15272587;19;20042;-44
2023/06/15 17:16:46;;;;;;;2.42;1.10;;;;;;;24.64;37.58;98369.19;15277354;19;20776;-45
2023/06/15 17:22:12;;;;;;;2.65;1.00;;;;;;;24.88;38.13;98375.28;15276731;19;20368;-48
2023/06/15 17:27:38;;;;;;;3.38;1.10;;;;;;;24.91;37.80;98365.72;15275678;19;20018;-48
2023/06/15 17:33:05;;;;;;;2.53;1.08;;;;;;;24.99;37.81;98370.75;15270210;19;20049;-48
2023/06/15 17:38:30;;;;;;;1.33;0.90;;;;;;;24.66;39.40;98382.69;15271519;19;20075;-45
2023/06/15 17:43:55;;;;;;;2.92;1.00;;;;;;;24.60;39.22;98374.38;15271629;19;20014;-46
2023/06/15 17:49:23;;;;;;;3.95;0.90;;;;;;;24.22;40.50;98384.28;15277154;19;20098;-48
2023/06/15 17:54:55;;;;;;;2.20;1.00;;;;;;;23.96;41.23;98385.78;15261087;19;20022;-43
2023/06/15 18:00:21;;;;;;;2.97;0.93;;;;;;;24.05;41.36;98377.97;15273406;19;20015;-43
2023/06/15 18:05:48;;;;;;;1.88;0.90;;;;;;;23.55;42.07;98385.88;15265160;19;20030;-43
2023/06/15 18:11:12;;;;;;;4.10;1.00;;;;;;;23.55;42.46;98385.88;15274424;19;20037;-45
2023/06/15 18:16:37;;;;;;;4.55;1.25;;;;;;;23.50;42.17;98378.38;15279097;19;20007;-44
2023/06/15 18:22:04;;;;;;;4.55;1.15;;;;;;;23.38;42.51;98380.34;15290633;19;20010;-42
2023/06/15 18:27:29;;;;;;;3.53;1.20;;;;;;;23.17;43.13;98393.66;15289335;19;20348;-42
2023/06/15 18:32:54;;;;;;;5.68;1.23;;;;;;;23.12;44.35;98393.56;15291070;19;20096;-42
2023/06/15 18:38:21;;;;;;;4.55;1.10;;;;;;;22.87;44.04;98393.88;15277969;19;20490;-41
2023/06/15 18:43:46;;;;;;;5.15;1.10;;;;;;;22.62;45.39;98400.50;15286265;19;20052;-43
2023/06/15 18:49:13;;;;;;;2.00;1.00;;;;;;;22.43;45.56;98397.03;15284466;19;20471;-44
2023/06/15 18:54:47;;;;;;;2.13;1.15;;;;;;;22.11;47.12;98395.44;15284728;19;20033;-44
2023/06/15 19:00:13;;;;;;;4.82;1.20;;;;;;;21.80;47.17;98402.91;15287897;19;20026;-44
2023/06/15 19:05:38;;;;;;;5.07;1.33;;;;;;;21.50;47.69;98397.44;15284086;19;20014;-45
2023/06/15 19:11:05;;;;;;;6.57;1.30;;;;;;;21.21;48.97;98398.03;15281444;19;20010;-45
2023/06/15 19:16:30;;;;;;;1.90;1.10;;;;;;;21.01;49.06;98391.97;15280679;19;20022;-46
2023/06/15 19:21:54;;;;;;;2.33;1.10;;;;;;;20.82;50.63;98397.47;15283729;19;20032;-42
2023/06/15 19:27:24;;;;;;;1.90;1.00;;;;;;;20.66;50.80;98398.88;15283468;19;20378;-42
2023/06/15 19:32:49;;;;;;;2.58;1.20;;;;;;;20.51;51.94;98404.72;15285085;19;20767;-43
2023/06/15 19:38:13;;;;;;;2.63;1.10;;;;;;;20.36;52.04;98401.50;15278211;19;20557;-51
2023/06/15 19:43:41;;;;;;;1.65;1.20;;;;;;;20.21;53.40;98405.44;15276665;19;20014;-44
2023/06/15 19:49:06;;;;;;;3.63;1.00;;;;;;;20.05;53.49;98403.28;15277521;19;20074;-43
2023/06/15 19:54:31;;;;;;;1.88;1.00;;;;;;;19.92;54.49;98418.72;15281499;19;20020;-44
2023/06/15 19:59:59;;;;;;;7.50;1.20;;;;;;;19.80;56.22;98415.00;15257334;19;20074;-43
2023/06/15 20:05:25;;;;;;;2.30;1.10;;;;;;;19.64;58.69;98417.22;15278809;19;20018;-43
2023/06/15 20:10:49;;;;;;;2.22;1.00;;;;;;;19.52;59.90;98417.06;15279243;19;20838;-46
2023/06/15 20:16:16;;;;;;;2.83;1.00;;;;;;;19.38;61.41;98415.47;15269751;19;20009;-45
2023/06/15 20:21:41;;;;;;;2.50;1.10;;;;;;;19.28;62.09;98418.66;15276613;19;20621;-49
2023/06/15 20:27:06;;;;;;;1.60;1.10;;;;;;;19.16;64.23;98417.69;15277857;19;20050;-43
2023/06/15 20:32:35;;;;;;;2.25;1.10;;;;;;;19.05;65.39;98414.59;15278051;19;20018;-43
2023/06/15 20:38:01;;;;;;;1.38;1.00;;;;;;;18.92;69.83;98410.00;15267053;19;20018;-43
2023/06/15 20:43:25;;;;;;;1.95;1.25;;;;;;;18.82;70.81;98411.50;15269489;19;20029;-43
2023/06/15 20:48:53;;;;;;;3.80;1.10;;;;;;;18.62;77.09;98406.94;15266523;19;20025;-43
2023/06/15 20:54:18;;;;;;;3.00;1.30;;;;;;;18.52;76.43;98420.19;15273059;19;20014;-42
2023/06/15 20:59:44;;;;;;;5.80;1.33;;;;;;;18.32;80.90;98410.13;15275169;19;20029;-44
2023/06/15 21:05:12;;;;;;;2.58;1.30;;;;;;;18.15;82.40;98407.84;15273785;19;20037;-45
2023/06/15 21:10:37;;;;;;;1.33;1.20;;;;;;;18.00;83.96;98396.31;15278462;19;20038;-42
2023/06/15 21:16:02;;;;;;;5.78;1.20;;;;;;;17.86;86.52;98401.75;15276684;19;21252;-45
2023/06/15 21:21:30;;;;;;;4.35;1.40;;;;;;;17.73;87.90;98393.53;15272953;19;20479;-47
2023/06/15 21:26:55;;;;;;;3.92;1.20;;;;;;;17.63;87.84;98391.25;15272652;19;20387;-42
2023/06/15 21:32:20;;;;;;;3.70;1.10;;;;;;;17.53;88.59;98397.09;15278393;19;20098;-42
2023/06/15 21:37:48;;;;;;;3.53;1.30;;;;;;;17.45;89.08;98388.28;15273584;19;20019;-45
2023/06/15 21:43:13;;;;;;;1.67;1.17;;;;;;;17.33;89.45;98396.22;15278119;19;20454;-43
2023/06/15 21:48:37;;;;;;;1.88;1.10;;;;;;;17.27;89.85;98397.03;15276471;19;20451;-42
2023/06/15 21:54:11;;;;;;;2.33;1.20;;;;;;;17.21;94.85;98388.66;15283992;19;20089;-42
2023/06/15 21:59:36;;;;;;;2.55;1.23;;;;;;;17.16;97.12;98398.47;15282579;19;20015;-45
2023/06/15 22:05:00;;;;;;;3.08;1.10;;;;;;;17.07;98.74;98395.91;15288367;19;20018;-44
2023/06/15 22:10:34;;;;;;;2.40;1.20;;;;;;;17.00;100.00;98402.38;15291177;19;20021;-43
2023/06/15 22:15:59;;;;;;;2.70;1.10;;;;;;;16.91;100.00;98394.38;15286310;19;20018;-42
2023/06/15 22:21:23;;;;;;;3.17;1.20;;;;;;;16.87;100.00;98393.13;15291330;19;20021;-41
2023/06/15 22:26:50;;;;;;;2.88;1.27;;;;;;;16.86;100.00;98394.16;15285125;19;20025;-45
2023/06/15 22:32:16;;;;;;;1.88;1.40;;;;;;;16.83;100.00;98397.28;15280576;19;20019;-43
2023/06/15 22:37:41;;;;;;;2.53;1.33;;;;;;;16.81;100.00;98393.91;15286249;19;20087;-43
2023/06/15 22:43:08;;;;;;;4.93;1.60;;;;;;;16.78;100.00;98394.31;15287707;19;20029;-43
2023/06/15 22:48:36;;;;;;;1.67;1.20;;;;;;;16.75;100.00;98394.72;15286893;19;20018;-44
2023/06/15 22:54:00;;;;;;;2.17;1.30;;;;;;;16.69;100.00;98393.66;15288659;19;20026;-43
2023/06/15 22:59:27;;;;;;;2.55;1.30;;;;;;;16.61;100.00;98397.38;15278363;19;20020;-43
2023/06/15 23:04:54;;;;;;;1.73;1.20;;;;;;;16.53;100.00;98388.53;15277467;19;20015;-42
2023/06/15 23:10:20;;;;;;;1.40;1.30;;;;;;;16.48;100.00;98395.41;15287303;19;20021;-43
2023/06/15 23:15:49;;;;;;;3.42;1.30;;;;;;;16.40;100.00;98386.59;15282539;19;20074;-42
2023/06/15 23:21:15;;;;;;;1.85;1.20;;;;;;;16.33;100.00;98381.94;15285687;19;20024;-43
2023/06/15 23:26:39;;;;;;;2.15;1.30;;;;;;;16.24;100.00;98369.56;15284892;19;20016;-43
2023/06/15 23:32:07;;;;;;;3.47;1.30;;;;;;;16.13;100.00;98375.53;15275219;19;20018;-42
2023/06/15 23:37:31;;;;;;;1.48;1.20;;;;;;;15.91;100.00;98372.03;15279753;19;20101;-43
2023/06/15 23:42:56;;;;;;;4.18;1.40;;;;;;;15.68;100.00;98373.91;15284687;19;20014;-42
2023/06/15 23:48:23;;;;;;;2.42;1.50;;;;;;;15.55;100.00;98368.38;15285384;19;20493;-42
2023/06/15 23:53:50;;;;;;;2.25;1.35;;;;;;;15.40;100.00;98368.44;15277052;19;20022;-45
2023/06/15 23:59:14;;;;;;;1.73;1.20;;;;;;;15.31;100.00;98362.28;15276190;19;20529;-45
